sensor_id;sensor_type;location;lat;lon;timestamp;P1;durP1;ratioP1;P2;durP2;ratioP2
60054;SDS011;45930;53.514;55.904;2022-08-19T00:00:48;9.52;;;5.55;;
60054;SDS011;45930;53.514;55.904;2022-08-19T00:01:51;6.78;;;5.53;;
60054;SDS011;45930;53.514;55.904;2022-08-19T00:02:54;6.47;;;5.82;;
60054;SDS011;45930;53.514;55.904;2022-08-19T00:03:56;6.03;;;5.25;;
60054;SDS011;45930;53.514;55.904;2022-08-19T00:04:57;10.35;;;5.20;;
60054;SDS011;45930;53.514;55.904;2022-08-19T00:05:58;7.60;;;5.85;;
60054;SDS011;45930;53.514;55.904;2022-08-19T00:06:59;7.40;;;5.65;;
60054;SDS011;45930;53.514;55.904;2022-08-19T00:08:01;6.55;;;5.03;;
60054;SDS011;45930;53.514;55.904;2022-08-19T00:09:03;6.28;;;5.68;;
60054;SDS011;45930;53.514;55.904;2022-08-19T00:10:06;5.93;;;5.32;;
60054;SDS011;45930;53.514;55.904;2022-08-19T00:11:07;8.07;;;5.60;;
60054;SDS011;45930;53.514;55.904;2022-08-19T00:12:08;6.47;;;5.68;;
60054;SDS011;45930;53.514;55.904;2022-08-19T00:13:09;8.57;;;5.50;;
60054;SDS011;45930;53.514;55.904;2022-08-19T00:14:11;10.05;;;6.13;;
60054;SDS011;45930;53.514;55.904;2022-08-19T00:15:14;7.35;;;5.43;;
60054;SDS011;45930;53.514;55.904;2022-08-19T00:16:17;6.85;;;5.43;;
60054;SDS011;45930;53.514;55.904;2022-08-19T00:17:21;6.55;;;5.63;;
60054;SDS011;45930;53.514;55.904;2022-08-19T00:18:22;7.13;;;5.57;;
60054;SDS011;45930;53.514;55.904;2022-08-19T00:19:23;7.20;;;5.50;;
60054;SDS011;45930;53.514;55.904;2022-08-19T00:20:24;8.05;;;5.78;;
60054;SDS011;45930;53.514;55.904;2022-08-19T00:21:26;7.65;;;5.43;;
60054;SDS011;45930;53.514;55.904;2022-08-19T00:22:27;7.60;;;5.55;;
60054;SDS011;45930;53.514;55.904;2022-08-19T00:23:28;6.07;;;5.47;;
60054;SDS011;45930;53.514;55.904;2022-08-19T00:24:30;10.48;;;5.47;;
60054;SDS011;45930;53.514;55.904;2022-08-19T00:25:31;13.35;;;5.93;;
60054;SDS011;45930;53.514;55.904;2022-08-19T00:26:33;6.82;;;5.43;;
60054;SDS011;45930;53.514;55.904;2022-08-19T00:27:34;8.55;;;5.30;;
60054;SDS011;45930;53.514;55.904;2022-08-19T00:28:35;8.75;;;5.95;;
60054;SDS011;45930;53.514;55.904;2022-08-19T00:29:36;7.65;;;5.53;;
60054;SDS011;45930;53.514;55.904;2022-08-19T00:30:38;8.80;;;5.65;;
60054;SDS011;45930;53.514;55.904;2022-08-19T00:31:39;9.25;;;5.22;;
60054;SDS011;45930;53.514;55.904;2022-08-19T00:32:41;7.68;;;5.90;;
60054;SDS011;45930;53.514;55.904;2022-08-19T00:33:42;6.75;;;5.55;;
60054;SDS011;45930;53.514;55.904;2022-08-19T00:34:44;11.32;;;6.50;;
60054;SDS011;45930;53.514;55.904;2022-08-19T00:35:44;8.68;;;6.30;;
60054;SDS011;45930;53.514;55.904;2022-08-19T00:36:45;8.68;;;5.50;;
60054;SDS011;45930;53.514;55.904;2022-08-19T00:37:47;10.50;;;5.68;;
60054;SDS011;45930;53.514;55.904;2022-08-19T00:38:49;9.18;;;5.78;;
60054;SDS011;45930;53.514;55.904;2022-08-19T00:39:52;8.55;;;5.85;;
60054;SDS011;45930;53.514;55.904;2022-08-19T00:40:53;6.78;;;6.00;;
60054;SDS011;45930;53.514;55.904;2022-08-19T00:41:54;8.60;;;6.28;;
60054;SDS011;45930;53.514;55.904;2022-08-19T00:42:55;10.77;;;6.38;;
60054;SDS011;45930;53.514;55.904;2022-08-19T00:43:59;8.82;;;6.85;;
60054;SDS011;45930;53.514;55.904;2022-08-19T00:45:03;8.85;;;7.25;;
60054;SDS011;45930;53.514;55.904;2022-08-19T00:46:11;11.32;;;7.72;;
60054;SDS011;45930;53.514;55.904;2022-08-19T00:47:11;13.60;;;8.25;;
60054;SDS011;45930;53.514;55.904;2022-08-19T00:48:13;11.82;;;8.05;;
60054;SDS011;45930;53.514;55.904;2022-08-19T00:50:23;10.80;;;8.55;;
60054;SDS011;45930;53.514;55.904;2022-08-19T00:51:25;11.93;;;8.30;;
60054;SDS011;45930;53.514;55.904;2022-08-19T00:52:32;9.13;;;8.23;;
60054;SDS011;45930;53.514;55.904;2022-08-19T00:53:35;11.43;;;8.32;;
60054;SDS011;45930;53.514;55.904;2022-08-19T00:54:36;10.00;;;8.75;;
60054;SDS011;45930;53.514;55.904;2022-08-19T00:55:39;10.82;;;9.32;;
60054;SDS011;45930;53.514;55.904;2022-08-19T00:56:40;12.45;;;8.60;;
60054;SDS011;45930;53.514;55.904;2022-08-19T00:57:46;10.73;;;8.55;;
60054;SDS011;45930;53.514;55.904;2022-08-19T00:58:51;10.63;;;8.98;;
60054;SDS011;45930;53.514;55.904;2022-08-19T00:59:53;11.55;;;8.20;;
60054;SDS011;45930;53.514;55.904;2022-08-19T01:00:56;9.45;;;8.18;;
60054;SDS011;45930;53.514;55.904;2022-08-19T01:01:56;13.02;;;8.80;;
60054;SDS011;45930;53.514;55.904;2022-08-19T01:02:58;11.75;;;8.90;;
60054;SDS011;45930;53.514;55.904;2022-08-19T01:03:59;10.02;;;8.68;;
60054;SDS011;45930;53.514;55.904;2022-08-19T01:05:00;9.23;;;8.32;;
60054;SDS011;45930;53.514;55.904;2022-08-19T01:06:04;10.13;;;9.13;;
60054;SDS011;45930;53.514;55.904;2022-08-19T01:07:05;13.35;;;9.27;;
60054;SDS011;45930;53.514;55.904;2022-08-19T01:08:07;9.43;;;8.45;;
60054;SDS011;45930;53.514;55.904;2022-08-19T01:09:09;10.18;;;8.40;;
60054;SDS011;45930;53.514;55.904;2022-08-19T01:10:14;12.38;;;8.95;;
60054;SDS011;45930;53.514;55.904;2022-08-19T01:11:18;9.30;;;8.38;;
60054;SDS011;45930;53.514;55.904;2022-08-19T01:12:19;11.00;;;8.25;;
60054;SDS011;45930;53.514;55.904;2022-08-19T01:13:22;11.75;;;9.63;;
60054;SDS011;45930;53.514;55.904;2022-08-19T01:14:26;11.05;;;9.52;;
60054;SDS011;45930;53.514;55.904;2022-08-19T01:15:29;9.57;;;8.15;;
60054;SDS011;45930;53.514;55.904;2022-08-19T01:16:32;9.57;;;7.85;;
60054;SDS011;45930;53.514;55.904;2022-08-19T01:17:35;9.85;;;8.60;;
60054;SDS011;45930;53.514;55.904;2022-08-19T01:18:39;9.70;;;8.43;;
60054;SDS011;45930;53.514;55.904;2022-08-19T01:19:43;10.45;;;8.60;;
60054;SDS011;45930;53.514;55.904;2022-08-19T01:20:47;9.32;;;8.27;;
60054;SDS011;45930;53.514;55.904;2022-08-19T01:21:50;9.38;;;8.45;;
60054;SDS011;45930;53.514;55.904;2022-08-19T01:22:56;13.45;;;8.90;;
60054;SDS011;45930;53.514;55.904;2022-08-19T01:23:58;10.93;;;8.82;;
60054;SDS011;45930;53.514;55.904;2022-08-19T01:25:00;14.68;;;8.70;;
60054;SDS011;45930;53.514;55.904;2022-08-19T01:26:01;11.02;;;7.97;;
60054;SDS011;45930;53.514;55.904;2022-08-19T01:27:05;13.60;;;9.38;;
60054;SDS011;45930;53.514;55.904;2022-08-19T01:28:07;10.20;;;9.18;;
60054;SDS011;45930;53.514;55.904;2022-08-19T01:29:08;11.63;;;8.75;;
60054;SDS011;45930;53.514;55.904;2022-08-19T01:30:11;13.43;;;9.07;;
60054;SDS011;45930;53.514;55.904;2022-08-19T01:31:16;15.07;;;9.27;;
60054;SDS011;45930;53.514;55.904;2022-08-19T01:32:23;10.98;;;8.52;;
60054;SDS011;45930;53.514;55.904;2022-08-19T01:33:24;13.82;;;9.23;;
60054;SDS011;45930;53.514;55.904;2022-08-19T01:34:24;10.13;;;9.00;;
60054;SDS011;45930;53.514;55.904;2022-08-19T01:35:26;11.43;;;8.82;;
60054;SDS011;45930;53.514;55.904;2022-08-19T01:37:51;13.05;;;9.00;;
60054;SDS011;45930;53.514;55.904;2022-08-19T01:38:57;10.40;;;8.32;;
60054;SDS011;45930;53.514;55.904;2022-08-19T01:39:58;11.80;;;9.10;;
60054;SDS011;45930;53.514;55.904;2022-08-19T01:40:59;13.32;;;9.20;;
60054;SDS011;45930;53.514;55.904;2022-08-19T01:42:00;11.98;;;8.68;;
60054;SDS011;45930;53.514;55.904;2022-08-19T01:43:03;12.55;;;9.02;;
60054;SDS011;45930;53.514;55.904;2022-08-19T01:44:05;11.25;;;9.40;;
60054;SDS011;45930;53.514;55.904;2022-08-19T01:45:08;10.63;;;8.95;;
60054;SDS011;45930;53.514;55.904;2022-08-19T01:46:09;15.23;;;9.23;;
60054;SDS011;45930;53.514;55.904;2022-08-19T01:47:11;13.77;;;9.00;;
60054;SDS011;45930;53.514;55.904;2022-08-19T01:48:12;12.75;;;9.07;;
60054;SDS011;45930;53.514;55.904;2022-08-19T01:49:14;15.68;;;9.48;;
60054;SDS011;45930;53.514;55.904;2022-08-19T01:50:17;13.10;;;8.88;;
60054;SDS011;45930;53.514;55.904;2022-08-19T01:51:18;11.95;;;9.00;;
60054;SDS011;45930;53.514;55.904;2022-08-19T01:52:19;13.40;;;9.00;;
60054;SDS011;45930;53.514;55.904;2022-08-19T01:53:20;13.88;;;9.52;;
60054;SDS011;45930;53.514;55.904;2022-08-19T01:54:21;9.80;;;8.80;;
60054;SDS011;45930;53.514;55.904;2022-08-19T01:55:23;12.25;;;9.27;;
60054;SDS011;45930;53.514;55.904;2022-08-19T01:56:24;11.77;;;8.68;;
60054;SDS011;45930;53.514;55.904;2022-08-19T01:57:25;10.88;;;8.85;;
60054;SDS011;45930;53.514;55.904;2022-08-19T01:58:29;10.60;;;8.93;;
60054;SDS011;45930;53.514;55.904;2022-08-19T01:59:36;11.68;;;8.55;;
60054;SDS011;45930;53.514;55.904;2022-08-19T02:00:37;14.85;;;9.02;;
60054;SDS011;45930;53.514;55.904;2022-08-19T02:01:38;16.70;;;9.20;;
60054;SDS011;45930;53.514;55.904;2022-08-19T02:02:39;13.48;;;8.50;;
60054;SDS011;45930;53.514;55.904;2022-08-19T02:03:40;14.73;;;9.77;;
60054;SDS011;45930;53.514;55.904;2022-08-19T02:04:41;12.43;;;8.75;;
60054;SDS011;45930;53.514;55.904;2022-08-19T02:05:42;14.38;;;8.13;;
60054;SDS011;45930;53.514;55.904;2022-08-19T02:06:44;9.52;;;7.97;;
60054;SDS011;45930;53.514;55.904;2022-08-19T02:07:45;13.88;;;8.55;;
60054;SDS011;45930;53.514;55.904;2022-08-19T02:08:46;14.90;;;8.05;;
60054;SDS011;45930;53.514;55.904;2022-08-19T02:09:48;19.27;;;9.43;;
60054;SDS011;45930;53.514;55.904;2022-08-19T02:10:48;10.90;;;8.35;;
60054;SDS011;45930;53.514;55.904;2022-08-19T02:11:50;13.00;;;7.93;;
60054;SDS011;45930;53.514;55.904;2022-08-19T02:12:51;13.95;;;8.20;;
60054;SDS011;45930;53.514;55.904;2022-08-19T02:13:52;12.55;;;8.00;;
60054;SDS011;45930;53.514;55.904;2022-08-19T02:14:54;9.48;;;7.57;;
60054;SDS011;45930;53.514;55.904;2022-08-19T02:15:55;11.77;;;8.27;;
60054;SDS011;45930;53.514;55.904;2022-08-19T02:16:56;13.15;;;8.27;;
60054;SDS011;45930;53.514;55.904;2022-08-19T02:17:56;10.80;;;7.60;;
60054;SDS011;45930;53.514;55.904;2022-08-19T02:18:57;14.35;;;8.68;;
60054;SDS011;45930;53.514;55.904;2022-08-19T02:20:00;11.20;;;7.90;;
60054;SDS011;45930;53.514;55.904;2022-08-19T02:21:01;16.35;;;8.07;;
60054;SDS011;45930;53.514;55.904;2022-08-19T02:22:02;13.13;;;8.50;;
60054;SDS011;45930;53.514;55.904;2022-08-19T02:23:04;12.45;;;8.35;;
60054;SDS011;45930;53.514;55.904;2022-08-19T02:24:05;10.00;;;7.72;;
60054;SDS011;45930;53.514;55.904;2022-08-19T02:25:06;8.63;;;7.70;;
60054;SDS011;45930;53.514;55.904;2022-08-19T02:26:08;8.73;;;7.32;;
60054;SDS011;45930;53.514;55.904;2022-08-19T02:27:09;12.18;;;8.40;;
60054;SDS011;45930;53.514;55.904;2022-08-19T02:28:10;12.30;;;7.80;;
60054;SDS011;45930;53.514;55.904;2022-08-19T02:29:11;10.43;;;7.55;;
60054;SDS011;45930;53.514;55.904;2022-08-19T02:30:14;10.93;;;7.07;;
60054;SDS011;45930;53.514;55.904;2022-08-19T02:31:18;14.80;;;7.65;;
60054;SDS011;45930;53.514;55.904;2022-08-19T02:32:20;11.40;;;7.70;;
60054;SDS011;45930;53.514;55.904;2022-08-19T02:33:21;9.23;;;7.93;;
60054;SDS011;45930;53.514;55.904;2022-08-19T02:34:22;11.75;;;7.45;;
60054;SDS011;45930;53.514;55.904;2022-08-19T02:35:25;10.00;;;7.82;;
60054;SDS011;45930;53.514;55.904;2022-08-19T02:36:26;17.45;;;7.10;;
60054;SDS011;45930;53.514;55.904;2022-08-19T02:37:28;9.10;;;6.75;;
60054;SDS011;45930;53.514;55.904;2022-08-19T02:38:47;11.82;;;7.75;;
60054;SDS011;45930;53.514;55.904;2022-08-19T02:39:48;8.40;;;7.15;;
60054;SDS011;45930;53.514;55.904;2022-08-19T02:40:49;10.20;;;7.43;;
60054;SDS011;45930;53.514;55.904;2022-08-19T02:41:52;8.45;;;6.82;;
60054;SDS011;45930;53.514;55.904;2022-08-19T02:42:53;9.52;;;6.60;;
60054;SDS011;45930;53.514;55.904;2022-08-19T02:43:54;11.75;;;7.13;;
60054;SDS011;45930;53.514;55.904;2022-08-19T02:44:58;11.35;;;7.15;;
60054;SDS011;45930;53.514;55.904;2022-08-19T02:45:58;13.93;;;7.32;;
60054;SDS011;45930;53.514;55.904;2022-08-19T02:47:00;10.55;;;6.45;;
60054;SDS011;45930;53.514;55.904;2022-08-19T02:48:01;12.20;;;7.13;;
60054;SDS011;45930;53.514;55.904;2022-08-19T02:49:03;14.27;;;6.32;;
60054;SDS011;45930;53.514;55.904;2022-08-19T02:50:06;15.75;;;6.93;;
60054;SDS011;45930;53.514;55.904;2022-08-19T02:51:07;9.98;;;5.95;;
60054;SDS011;45930;53.514;55.904;2022-08-19T02:52:08;12.95;;;6.82;;
60054;SDS011;45930;53.514;55.904;2022-08-19T02:53:09;11.50;;;6.65;;
60054;SDS011;45930;53.514;55.904;2022-08-19T02:54:11;7.88;;;5.97;;
60054;SDS011;45930;53.514;55.904;2022-08-19T02:55:13;11.68;;;6.93;;
60054;SDS011;45930;53.514;55.904;2022-08-19T02:56:14;8.32;;;5.78;;
60054;SDS011;45930;53.514;55.904;2022-08-19T02:57:15;6.68;;;6.05;;
60054;SDS011;45930;53.514;55.904;2022-08-19T02:58:16;8.20;;;5.97;;
60054;SDS011;45930;53.514;55.904;2022-08-19T02:59:17;9.32;;;6.22;;
60054;SDS011;45930;53.514;55.904;2022-08-19T03:00:18;8.55;;;6.20;;
60054;SDS011;45930;53.514;55.904;2022-08-19T03:01:22;9.10;;;5.90;;
60054;SDS011;45930;53.514;55.904;2022-08-19T03:02:27;8.18;;;5.93;;
60054;SDS011;45930;53.514;55.904;2022-08-19T03:03:27;8.75;;;5.88;;
60054;SDS011;45930;53.514;55.904;2022-08-19T03:04:28;7.78;;;5.75;;
60054;SDS011;45930;53.514;55.904;2022-08-19T03:05:29;10.82;;;5.93;;
60054;SDS011;45930;53.514;55.904;2022-08-19T03:06:30;10.00;;;6.07;;
60054;SDS011;45930;53.514;55.904;2022-08-19T03:07:32;9.35;;;5.80;;
60054;SDS011;45930;53.514;55.904;2022-08-19T03:08:32;7.90;;;5.15;;
60054;SDS011;45930;53.514;55.904;2022-08-19T03:09:35;8.82;;;5.28;;
60054;SDS011;45930;53.514;55.904;2022-08-19T03:10:44;10.73;;;5.70;;
60054;SDS011;45930;53.514;55.904;2022-08-19T03:11:46;8.43;;;5.15;;
60054;SDS011;45930;53.514;55.904;2022-08-19T03:12:47;10.35;;;5.13;;
60054;SDS011;45930;53.514;55.904;2022-08-19T03:13:48;11.48;;;5.32;;
60054;SDS011;45930;53.514;55.904;2022-08-19T03:14:50;12.80;;;5.60;;
60054;SDS011;45930;53.514;55.904;2022-08-19T03:15:52;9.77;;;5.70;;
60054;SDS011;45930;53.514;55.904;2022-08-19T03:16:53;12.45;;;5.40;;
60054;SDS011;45930;53.514;55.904;2022-08-19T03:17:53;9.38;;;4.45;;
60054;SDS011;45930;53.514;55.904;2022-08-19T03:18:55;6.60;;;4.85;;
60054;SDS011;45930;53.514;55.904;2022-08-19T03:19:59;6.35;;;4.60;;
60054;SDS011;45930;53.514;55.904;2022-08-19T03:21:00;7.88;;;4.95;;
60054;SDS011;45930;53.514;55.904;2022-08-19T03:22:01;12.27;;;4.93;;
60054;SDS011;45930;53.514;55.904;2022-08-19T03:23:02;7.47;;;4.95;;
60054;SDS011;45930;53.514;55.904;2022-08-19T03:24:04;13.10;;;5.07;;
60054;SDS011;45930;53.514;55.904;2022-08-19T03:25:07;13.07;;;5.25;;
60054;SDS011;45930;53.514;55.904;2022-08-19T03:26:08;8.73;;;4.85;;
60054;SDS011;45930;53.514;55.904;2022-08-19T03:27:09;8.38;;;5.15;;
60054;SDS011;45930;53.514;55.904;2022-08-19T03:28:10;8.13;;;4.57;;
60054;SDS011;45930;53.514;55.904;2022-08-19T03:29:12;7.90;;;4.82;;
60054;SDS011;45930;53.514;55.904;2022-08-19T03:30:14;9.60;;;4.85;;
60054;SDS011;45930;53.514;55.904;2022-08-19T03:31:16;9.85;;;4.60;;
60054;SDS011;45930;53.514;55.904;2022-08-19T03:32:20;10.27;;;5.15;;
60054;SDS011;45930;53.514;55.904;2022-08-19T03:33:22;7.65;;;4.82;;
60054;SDS011;45930;53.514;55.904;2022-08-19T03:34:24;6.05;;;4.63;;
60054;SDS011;45930;53.514;55.904;2022-08-19T03:35:27;7.22;;;4.35;;
60054;SDS011;45930;53.514;55.904;2022-08-19T03:36:28;10.80;;;4.82;;
60054;SDS011;45930;53.514;55.904;2022-08-19T03:37:29;6.15;;;4.80;;
60054;SDS011;45930;53.514;55.904;2022-08-19T03:38:31;8.27;;;4.43;;
60054;SDS011;45930;53.514;55.904;2022-08-19T03:39:32;8.50;;;4.70;;
60054;SDS011;45930;53.514;55.904;2022-08-19T03:40:36;7.18;;;4.65;;
60054;SDS011;45930;53.514;55.904;2022-08-19T03:41:38;8.50;;;4.78;;
60054;SDS011;45930;53.514;55.904;2022-08-19T03:42:40;8.32;;;4.57;;
60054;SDS011;45930;53.514;55.904;2022-08-19T03:43:43;6.38;;;3.95;;
60054;SDS011;45930;53.514;55.904;2022-08-19T03:44:47;7.45;;;4.28;;
60054;SDS011;45930;53.514;55.904;2022-08-19T03:45:48;10.25;;;4.40;;
60054;SDS011;45930;53.514;55.904;2022-08-19T03:46:53;7.03;;;4.22;;
60054;SDS011;45930;53.514;55.904;2022-08-19T03:47:56;9.50;;;4.18;;
60054;SDS011;45930;53.514;55.904;2022-08-19T03:48:57;11.50;;;4.28;;
60054;SDS011;45930;53.514;55.904;2022-08-19T03:49:59;6.85;;;4.18;;
60054;SDS011;45930;53.514;55.904;2022-08-19T03:51:01;8.43;;;3.65;;
60054;SDS011;45930;53.514;55.904;2022-08-19T03:52:03;7.75;;;3.80;;
60054;SDS011;45930;53.514;55.904;2022-08-19T03:53:07;5.65;;;3.22;;
60054;SDS011;45930;53.514;55.904;2022-08-19T03:54:10;9.65;;;3.70;;
60054;SDS011;45930;53.514;55.904;2022-08-19T03:55:13;6.32;;;3.60;;
60054;SDS011;45930;53.514;55.904;2022-08-19T03:56:14;8.48;;;3.65;;
60054;SDS011;45930;53.514;55.904;2022-08-19T03:57:15;6.45;;;3.03;;
60054;SDS011;45930;53.514;55.904;2022-08-19T03:58:16;5.88;;;3.00;;
60054;SDS011;45930;53.514;55.904;2022-08-19T03:59:18;7.75;;;3.63;;
60054;SDS011;45930;53.514;55.904;2022-08-19T04:00:22;7.82;;;3.28;;
60054;SDS011;45930;53.514;55.904;2022-08-19T04:01:23;8.25;;;3.38;;
60054;SDS011;45930;53.514;55.904;2022-08-19T04:02:26;8.25;;;3.92;;
60054;SDS011;45930;53.514;55.904;2022-08-19T04:03:27;6.95;;;3.70;;
60054;SDS011;45930;53.514;55.904;2022-08-19T04:04:28;13.40;;;3.55;;
60054;SDS011;45930;53.514;55.904;2022-08-19T04:05:29;5.50;;;3.10;;
60054;SDS011;45930;53.514;55.904;2022-08-19T04:06:31;5.95;;;2.83;;
60054;SDS011;45930;53.514;55.904;2022-08-19T04:07:34;4.97;;;3.17;;
60054;SDS011;45930;53.514;55.904;2022-08-19T04:08:35;6.20;;;3.47;;
60054;SDS011;45930;53.514;55.904;2022-08-19T04:09:36;7.47;;;3.47;;
60054;SDS011;45930;53.514;55.904;2022-08-19T04:10:38;7.22;;;3.38;;
60054;SDS011;45930;53.514;55.904;2022-08-19T04:11:41;7.32;;;3.95;;
60054;SDS011;45930;53.514;55.904;2022-08-19T04:12:45;4.93;;;2.97;;
60054;SDS011;45930;53.514;55.904;2022-08-19T04:13:46;6.05;;;3.15;;
60054;SDS011;45930;53.514;55.904;2022-08-19T04:14:48;9.05;;;3.25;;
60054;SDS011;45930;53.514;55.904;2022-08-19T04:15:49;7.40;;;4.20;;
60054;SDS011;45930;53.514;55.904;2022-08-19T04:16:50;8.77;;;3.55;;
60054;SDS011;45930;53.514;55.904;2022-08-19T04:17:52;6.93;;;3.50;;
60054;SDS011;45930;53.514;55.904;2022-08-19T04:18:53;6.65;;;3.45;;
60054;SDS011;45930;53.514;55.904;2022-08-19T04:19:54;6.22;;;3.40;;
60054;SDS011;45930;53.514;55.904;2022-08-19T04:20:55;7.47;;;3.47;;
60054;SDS011;45930;53.514;55.904;2022-08-19T04:21:57;10.85;;;3.63;;
60054;SDS011;45930;53.514;55.904;2022-08-19T04:22:58;9.05;;;3.25;;
60054;SDS011;45930;53.514;55.904;2022-08-19T04:23:59;7.63;;;3.95;;
60054;SDS011;45930;53.514;55.904;2022-08-19T04:25:00;8.85;;;4.78;;
60054;SDS011;45930;53.514;55.904;2022-08-19T04:26:01;7.13;;;3.25;;
60054;SDS011;45930;53.514;55.904;2022-08-19T04:27:02;6.15;;;3.78;;
60054;SDS011;45930;53.514;55.904;2022-08-19T04:28:04;8.35;;;4.82;;
60054;SDS011;45930;53.514;55.904;2022-08-19T04:29:07;7.68;;;3.72;;
60054;SDS011;45930;53.514;55.904;2022-08-19T04:30:10;8.77;;;3.85;;
60054;SDS011;45930;53.514;55.904;2022-08-19T04:31:15;9.10;;;3.75;;
60054;SDS011;45930;53.514;55.904;2022-08-19T04:32:18;14.73;;;6.53;;
60054;SDS011;45930;53.514;55.904;2022-08-19T04:33:20;9.02;;;4.18;;
60054;SDS011;45930;53.514;55.904;2022-08-19T04:34:24;7.25;;;3.50;;
60054;SDS011;45930;53.514;55.904;2022-08-19T04:35:28;17.38;;;7.57;;
60054;SDS011;45930;53.514;55.904;2022-08-19T04:36:35;18.95;;;9.52;;
60054;SDS011;45930;53.514;55.904;2022-08-19T04:37:38;9.23;;;4.45;;
60054;SDS011;45930;53.514;55.904;2022-08-19T04:38:38;9.07;;;3.58;;
60054;SDS011;45930;53.514;55.904;2022-08-19T04:39:39;6.93;;;3.85;;
60054;SDS011;45930;53.514;55.904;2022-08-19T04:40:59;8.70;;;3.55;;
60054;SDS011;45930;53.514;55.904;2022-08-19T04:42:18;10.40;;;5.88;;
60054;SDS011;45930;53.514;55.904;2022-08-19T04:43:37;16.95;;;7.38;;
60054;SDS011;45930;53.514;55.904;2022-08-19T04:44:38;9.50;;;4.63;;
60054;SDS011;45930;53.514;55.904;2022-08-19T04:45:39;8.00;;;3.28;;
60054;SDS011;45930;53.514;55.904;2022-08-19T04:46:40;9.65;;;3.40;;
60054;SDS011;45930;53.514;55.904;2022-08-19T04:47:42;10.13;;;3.78;;
60054;SDS011;45930;53.514;55.904;2022-08-19T04:48:44;6.47;;;3.28;;
60054;SDS011;45930;53.514;55.904;2022-08-19T04:49:45;7.82;;;3.22;;
60054;SDS011;45930;53.514;55.904;2022-08-19T04:50:46;7.65;;;3.40;;
60054;SDS011;45930;53.514;55.904;2022-08-19T04:51:49;6.47;;;3.47;;
60054;SDS011;45930;53.514;55.904;2022-08-19T04:52:54;6.80;;;4.22;;
60054;SDS011;45930;53.514;55.904;2022-08-19T04:53:55;8.30;;;3.45;;
60054;SDS011;45930;53.514;55.904;2022-08-19T04:54:57;7.28;;;3.40;;
60054;SDS011;45930;53.514;55.904;2022-08-19T04:55:59;6.93;;;3.90;;
60054;SDS011;45930;53.514;55.904;2022-08-19T04:57:04;7.63;;;3.58;;
60054;SDS011;45930;53.514;55.904;2022-08-19T04:58:06;7.63;;;3.22;;
60054;SDS011;45930;53.514;55.904;2022-08-19T04:59:07;7.55;;;3.30;;
60054;SDS011;45930;53.514;55.904;2022-08-19T05:00:09;13.18;;;3.70;;
60054;SDS011;45930;53.514;55.904;2022-08-19T05:01:14;8.73;;;3.65;;
60054;SDS011;45930;53.514;55.904;2022-08-19T05:02:18;8.10;;;3.60;;
60054;SDS011;45930;53.514;55.904;2022-08-19T05:03:19;5.35;;;4.00;;
60054;SDS011;45930;53.514;55.904;2022-08-19T05:04:20;9.00;;;3.65;;
60054;SDS011;45930;53.514;55.904;2022-08-19T05:05:21;7.30;;;3.25;;
60054;SDS011;45930;53.514;55.904;2022-08-19T05:06:22;21.35;;;4.22;;
60054;SDS011;45930;53.514;55.904;2022-08-19T05:07:24;17.00;;;4.43;;
60054;SDS011;45930;53.514;55.904;2022-08-19T05:08:25;7.25;;;3.50;;
60054;SDS011;45930;53.514;55.904;2022-08-19T05:09:26;7.22;;;3.67;;
60054;SDS011;45930;53.514;55.904;2022-08-19T05:10:27;8.88;;;3.90;;
60054;SDS011;45930;53.514;55.904;2022-08-19T05:11:29;7.32;;;3.53;;
60054;SDS011;45930;53.514;55.904;2022-08-19T05:12:35;12.20;;;4.28;;
60054;SDS011;45930;53.514;55.904;2022-08-19T05:13:35;10.07;;;3.85;;
60054;SDS011;45930;53.514;55.904;2022-08-19T05:14:37;9.23;;;4.30;;
60054;SDS011;45930;53.514;55.904;2022-08-19T05:15:38;11.95;;;4.45;;
60054;SDS011;45930;53.514;55.904;2022-08-19T05:16:39;7.20;;;4.03;;
60054;SDS011;45930;53.514;55.904;2022-08-19T05:17:40;21.15;;;5.05;;
60054;SDS011;45930;53.514;55.904;2022-08-19T05:19:01;7.80;;;3.40;;
60054;SDS011;45930;53.514;55.904;2022-08-19T05:20:20;8.00;;;4.03;;
60054;SDS011;45930;53.514;55.904;2022-08-19T05:21:41;8.57;;;4.13;;
60054;SDS011;45930;53.514;55.904;2022-08-19T05:23:00;18.15;;;5.15;;
60054;SDS011;45930;53.514;55.904;2022-08-19T05:24:02;15.77;;;6.82;;
60054;SDS011;45930;53.514;55.904;2022-08-19T05:25:08;8.73;;;4.65;;
60054;SDS011;45930;53.514;55.904;2022-08-19T05:26:12;8.73;;;3.88;;
60054;SDS011;45930;53.514;55.904;2022-08-19T05:27:13;6.72;;;3.70;;
60054;SDS011;45930;53.514;55.904;2022-08-19T05:28:13;7.95;;;3.40;;
60054;SDS011;45930;53.514;55.904;2022-08-19T05:29:15;9.05;;;4.30;;
60054;SDS011;45930;53.514;55.904;2022-08-19T05:30:19;11.57;;;6.88;;
60054;SDS011;45930;53.514;55.904;2022-08-19T05:31:19;34.60;;;6.80;;
60054;SDS011;45930;53.514;55.904;2022-08-19T05:32:21;35.03;;;9.25;;
60054;SDS011;45930;53.514;55.904;2022-08-19T05:33:23;18.77;;;7.13;;
60054;SDS011;45930;53.514;55.904;2022-08-19T05:34:24;9.50;;;4.07;;
60054;SDS011;45930;53.514;55.904;2022-08-19T05:35:26;6.22;;;3.92;;
60054;SDS011;45930;53.514;55.904;2022-08-19T05:36:28;9.77;;;3.63;;
60054;SDS011;45930;53.514;55.904;2022-08-19T05:37:34;8.27;;;3.90;;
60054;SDS011;45930;53.514;55.904;2022-08-19T05:38:35;5.97;;;3.40;;
60054;SDS011;45930;53.514;55.904;2022-08-19T05:39:37;6.38;;;3.78;;
60054;SDS011;45930;53.514;55.904;2022-08-19T05:40:38;5.88;;;4.03;;
60054;SDS011;45930;53.514;55.904;2022-08-19T05:41:47;14.50;;;5.78;;
60054;SDS011;45930;53.514;55.904;2022-08-19T05:42:50;11.65;;;6.35;;
60054;SDS011;45930;53.514;55.904;2022-08-19T05:43:50;9.80;;;5.28;;
60054;SDS011;45930;53.514;55.904;2022-08-19T05:44:51;10.65;;;6.32;;
60054;SDS011;45930;53.514;55.904;2022-08-19T05:45:52;10.00;;;4.70;;
60054;SDS011;45930;53.514;55.904;2022-08-19T05:46:53;14.98;;;5.10;;
60054;SDS011;45930;53.514;55.904;2022-08-19T05:47:55;7.05;;;3.70;;
60054;SDS011;45930;53.514;55.904;2022-08-19T05:48:56;10.18;;;4.38;;
60054;SDS011;45930;53.514;55.904;2022-08-19T05:49:56;7.55;;;4.18;;
60054;SDS011;45930;53.514;55.904;2022-08-19T05:50:57;10.30;;;4.10;;
60054;SDS011;45930;53.514;55.904;2022-08-19T05:52:07;9.35;;;3.78;;
60054;SDS011;45930;53.514;55.904;2022-08-19T05:53:11;8.30;;;4.53;;
60054;SDS011;45930;53.514;55.904;2022-08-19T05:54:12;32.55;;;6.40;;
60054;SDS011;45930;53.514;55.904;2022-08-19T05:55:13;9.65;;;4.15;;
60054;SDS011;45930;53.514;55.904;2022-08-19T05:56:15;7.90;;;3.80;;
60054;SDS011;45930;53.514;55.904;2022-08-19T05:57:17;7.65;;;4.65;;
60054;SDS011;45930;53.514;55.904;2022-08-19T05:58:19;13.43;;;4.68;;
60054;SDS011;45930;53.514;55.904;2022-08-19T05:59:20;4.68;;;4.03;;
60054;SDS011;45930;53.514;55.904;2022-08-19T06:00:22;6.07;;;3.53;;
60054;SDS011;45930;53.514;55.904;2022-08-19T06:01:24;22.60;;;5.30;;
60054;SDS011;45930;53.514;55.904;2022-08-19T06:02:26;8.45;;;4.18;;
60054;SDS011;45930;53.514;55.904;2022-08-19T06:03:27;12.30;;;4.13;;
60054;SDS011;45930;53.514;55.904;2022-08-19T06:04:28;8.48;;;4.10;;
60054;SDS011;45930;53.514;55.904;2022-08-19T06:05:32;6.57;;;3.85;;
60054;SDS011;45930;53.514;55.904;2022-08-19T06:06:34;6.55;;;3.85;;
60054;SDS011;45930;53.514;55.904;2022-08-19T06:07:36;7.47;;;4.57;;
60054;SDS011;45930;53.514;55.904;2022-08-19T06:08:38;6.40;;;3.70;;
60054;SDS011;45930;53.514;55.904;2022-08-19T06:09:39;9.68;;;4.05;;
60054;SDS011;45930;53.514;55.904;2022-08-19T06:10:41;5.97;;;4.00;;